Terminal Aerodrome Forecast
Issued by NWS Cleveland, OH

Home | Current Version | Previous Version | Graphics & Text | Print | Product List | Glossary On
Versions: 1 2 3 4 5 6 7 8 9 10 11 12 13 14 15 16 17 18 19 20 21 22 23 24 25 26 27 28
000
FTUS41 KCLE 020200 AAB
TAFTOL
TAF AMD
KTOL 020258Z 0203/0224 26008KT 4SM BR SCT012 OVC025
      TEMPO 0203/0206 BKN012
     FM020600 28011KT 5SM BR OVC012
     FM021400 28009KT P6SM SCT025 BKN045
     FM021600 28008KT P6SM SCT045 BKN250=

USA.gov is the U.S. government's official web portal to all federal, state and local government web resources and services.